sensor_id;sensor_type;location;lat;lon;timestamp;P1;durP1;ratioP1;P2;durP2;ratioP2
70014;SDS011;57358;51.094;6.760;2024-01-16T00:04:00;9.4;;;15.7;;
70014;SDS011;57358;51.094;6.760;2024-01-16T00:08:59;9.8;;;17.4;;
70014;SDS011;57358;51.094;6.760;2024-01-16T00:13:58;10;;;20.8;;
70014;SDS011;57358;51.094;6.760;2024-01-16T00:18:57;10.5;;;21.4;;
70014;SDS011;57358;51.094;6.760;2024-01-16T00:23:56;11.7;;;24.2;;
70014;SDS011;57358;51.094;6.760;2024-01-16T00:28:55;12.4;;;24.4;;
70014;SDS011;57358;51.094;6.760;2024-01-16T00:33:54;11;;;25.7;;
70014;SDS011;57358;51.094;6.760;2024-01-16T00:38:53;11.6;;;23.9;;
70014;SDS011;57358;51.094;6.760;2024-01-16T00:43:52;11.5;;;21.4;;
70014;SDS011;57358;51.094;6.760;2024-01-16T00:48:51;11.3;;;24.9;;
70014;SDS011;57358;51.094;6.760;2024-01-16T00:53:50;11.4;;;24.1;;
70014;SDS011;57358;51.094;6.760;2024-01-16T00:58:49;11.8;;;28.5;;
70014;SDS011;57358;51.094;6.760;2024-01-16T01:03:48;11.7;;;25.2;;
70014;SDS011;57358;51.094;6.760;2024-01-16T01:08:47;10.8;;;20.1;;
70014;SDS011;57358;51.094;6.760;2024-01-16T01:13:47;10.5;;;23.5;;
70014;SDS011;57358;51.094;6.760;2024-01-16T01:18:46;10.4;;;23.8;;
70014;SDS011;57358;51.094;6.760;2024-01-16T01:23:45;9.5;;;23.5;;
70014;SDS011;57358;51.094;6.760;2024-01-16T01:28:44;9.1;;;19;;
70014;SDS011;57358;51.094;6.760;2024-01-16T01:33:43;8.7;;;23.8;;
70014;SDS011;57358;51.094;6.760;2024-01-16T01:38:42;8.5;;;14;;
70014;SDS011;57358;51.094;6.760;2024-01-16T01:43:41;9.4;;;19.3;;
70014;SDS011;57358;51.094;6.760;2024-01-16T01:48:40;9.3;;;16.8;;
70014;SDS011;57358;51.094;6.760;2024-01-16T01:53:39;11;;;22.2;;
70014;SDS011;57358;51.094;6.760;2024-01-16T01:58:38;10.4;;;23.1;;
70014;SDS011;57358;51.094;6.760;2024-01-16T02:03:39;10.9;;;24.3;;
70014;SDS011;57358;51.094;6.760;2024-01-16T02:08:36;10.7;;;23.8;;
70014;SDS011;57358;51.094;6.760;2024-01-16T02:13:35;10.9;;;21.2;;
70014;SDS011;57358;51.094;6.760;2024-01-16T02:18:34;10.5;;;29.8;;
70014;SDS011;57358;51.094;6.760;2024-01-16T02:23:33;10;;;25.3;;
70014;SDS011;57358;51.094;6.760;2024-01-16T02:28:32;9.2;;;27.4;;
70014;SDS011;57358;51.094;6.760;2024-01-16T02:33:31;9.7;;;23.4;;
70014;SDS011;57358;51.094;6.760;2024-01-16T02:38:30;9;;;19;;
70014;SDS011;57358;51.094;6.760;2024-01-16T02:43:29;10;;;28.9;;
70014;SDS011;57358;51.094;6.760;2024-01-16T02:48:29;8.5;;;18.3;;
70014;SDS011;57358;51.094;6.760;2024-01-16T02:53:28;9.3;;;22.8;;
70014;SDS011;57358;51.094;6.760;2024-01-16T02:58:27;9.4;;;22.1;;
70014;SDS011;57358;51.094;6.760;2024-01-16T03:03:26;9;;;18;;
70014;SDS011;57358;51.094;6.760;2024-01-16T03:08:25;9;;;18.9;;
70014;SDS011;57358;51.094;6.760;2024-01-16T03:13:24;9.7;;;24.2;;
70014;SDS011;57358;51.094;6.760;2024-01-16T03:18:23;9.4;;;20;;
70014;SDS011;57358;51.094;6.760;2024-01-16T03:23:22;9.6;;;25.8;;
70014;SDS011;57358;51.094;6.760;2024-01-16T03:28:21;8.6;;;17.3;;
70014;SDS011;57358;51.094;6.760;2024-01-16T03:33:20;9.5;;;21.8;;
70014;SDS011;57358;51.094;6.760;2024-01-16T03:38:19;8.7;;;18.8;;
70014;SDS011;57358;51.094;6.760;2024-01-16T03:43:18;9;;;15;;
70014;SDS011;57358;51.094;6.760;2024-01-16T03:48:17;9.2;;;16.8;;
70014;SDS011;57358;51.094;6.760;2024-01-16T03:53:17;8.6;;;16.3;;
70014;SDS011;57358;51.094;6.760;2024-01-16T03:58:16;8.6;;;15.1;;
70014;SDS011;57358;51.094;6.760;2024-01-16T04:03:15;9.5;;;15.9;;
70014;SDS011;57358;51.094;6.760;2024-01-16T04:08:14;8.5;;;17.7;;
70014;SDS011;57358;51.094;6.760;2024-01-16T04:13:14;9.7;;;22.4;;
70014;SDS011;57358;51.094;6.760;2024-01-16T04:18:12;9.2;;;15.1;;
70014;SDS011;57358;51.094;6.760;2024-01-16T04:23:12;9.3;;;17.8;;
70014;SDS011;57358;51.094;6.760;2024-01-16T04:28:10;11.1;;;22.5;;
70014;SDS011;57358;51.094;6.760;2024-01-16T04:33:09;8.5;;;19.3;;
70014;SDS011;57358;51.094;6.760;2024-01-16T04:38:08;9.7;;;24.6;;
70014;SDS011;57358;51.094;6.760;2024-01-16T04:43:07;9.5;;;21.3;;
70014;SDS011;57358;51.094;6.760;2024-01-16T04:48:06;8.9;;;20.6;;
70014;SDS011;57358;51.094;6.760;2024-01-16T04:53:06;9.2;;;22.8;;
70014;SDS011;57358;51.094;6.760;2024-01-16T04:58:05;8.3;;;17;;
70014;SDS011;57358;51.094;6.760;2024-01-16T05:03:04;8.1;;;18.1;;
70014;SDS011;57358;51.094;6.760;2024-01-16T05:08:03;8.8;;;24.5;;
70014;SDS011;57358;51.094;6.760;2024-01-16T05:13:02;7.8;;;15.3;;
70014;SDS011;57358;51.094;6.760;2024-01-16T05:18:01;8;;;19.2;;
70014;SDS011;57358;51.094;6.760;2024-01-16T05:23:00;8;;;16.5;;
70014;SDS011;57358;51.094;6.760;2024-01-16T05:27:59;7;;;15.7;;
70014;SDS011;57358;51.094;6.760;2024-01-16T05:32:58;8;;;19;;
70014;SDS011;57358;51.094;6.760;2024-01-16T05:37:57;7;;;14.2;;
70014;SDS011;57358;51.094;6.760;2024-01-16T05:42:56;7;;;14.1;;
70014;SDS011;57358;51.094;6.760;2024-01-16T05:47:55;6.4;;;11.8;;
70014;SDS011;57358;51.094;6.760;2024-01-16T05:52:54;6.4;;;18.2;;
70014;SDS011;57358;51.094;6.760;2024-01-16T05:57:54;6;;;12.4;;
70014;SDS011;57358;51.094;6.760;2024-01-16T06:02:53;5.9;;;16.8;;
70014;SDS011;57358;51.094;6.760;2024-01-16T06:07:52;5.2;;;12.6;;
70014;SDS011;57358;51.094;6.760;2024-01-16T06:12:51;5.7;;;18.7;;
70014;SDS011;57358;51.094;6.760;2024-01-16T06:17:50;5.4;;;12.1;;
70014;SDS011;57358;51.094;6.760;2024-01-16T06:22:49;5.1;;;11.7;;
70014;SDS011;57358;51.094;6.760;2024-01-16T06:27:48;4.9;;;13.3;;
70014;SDS011;57358;51.094;6.760;2024-01-16T06:32:47;5.4;;;11;;
70014;SDS011;57358;51.094;6.760;2024-01-16T06:37:46;5.4;;;13.8;;
70014;SDS011;57358;51.094;6.760;2024-01-16T06:42:45;5.2;;;10.6;;
70014;SDS011;57358;51.094;6.760;2024-01-16T06:47:44;4.9;;;10.1;;
70014;SDS011;57358;51.094;6.760;2024-01-16T06:52:43;5.8;;;19.4;;
70014;SDS011;57358;51.094;6.760;2024-01-16T06:57:42;4.8;;;8.8;;
70014;SDS011;57358;51.094;6.760;2024-01-16T07:02:41;5;;;13.5;;
70014;SDS011;57358;51.094;6.760;2024-01-16T07:07:40;5;;;12.5;;
70014;SDS011;57358;51.094;6.760;2024-01-16T07:12:39;4.3;;;11.5;;
70014;SDS011;57358;51.094;6.760;2024-01-16T07:17:39;4.3;;;12.2;;
70014;SDS011;57358;51.094;6.760;2024-01-16T07:22:38;4;;;9.2;;
70014;SDS011;57358;51.094;6.760;2024-01-16T07:27:37;4;;;7.2;;
70014;SDS011;57358;51.094;6.760;2024-01-16T07:32:36;4.4;;;9.7;;
70014;SDS011;57358;51.094;6.760;2024-01-16T07:37:35;4.8;;;10.6;;
70014;SDS011;57358;51.094;6.760;2024-01-16T07:42:34;4.2;;;8.8;;
70014;SDS011;57358;51.094;6.760;2024-01-16T07:47:33;6;;;12.3;;
70014;SDS011;57358;51.094;6.760;2024-01-16T07:52:32;5.4;;;12.1;;
70014;SDS011;57358;51.094;6.760;2024-01-16T07:57:31;5.8;;;14.9;;
70014;SDS011;57358;51.094;6.760;2024-01-16T08:02:31;4.6;;;9.6;;
70014;SDS011;57358;51.094;6.760;2024-01-16T08:07:29;5.8;;;15.9;;
70014;SDS011;57358;51.094;6.760;2024-01-16T08:12:28;5.1;;;12.7;;
70014;SDS011;57358;51.094;6.760;2024-01-16T08:17:27;5.5;;;11.5;;
70014;SDS011;57358;51.094;6.760;2024-01-16T08:22:26;4.9;;;8.8;;
70014;SDS011;57358;51.094;6.760;2024-01-16T08:27:25;5.2;;;12;;
70014;SDS011;57358;51.094;6.760;2024-01-16T08:32:24;4.6;;;10.1;;
70014;SDS011;57358;51.094;6.760;2024-01-16T08:37:23;5;;;11;;
70014;SDS011;57358;51.094;6.760;2024-01-16T08:42:23;5;;;12.7;;
70014;SDS011;57358;51.094;6.760;2024-01-16T08:47:22;12.1;;;29.7;;
70014;SDS011;57358;51.094;6.760;2024-01-16T08:52:21;4.8;;;11.9;;
70014;SDS011;57358;51.094;6.760;2024-01-16T08:57:20;5.5;;;13.7;;
70014;SDS011;57358;51.094;6.760;2024-01-16T09:02:19;5.1;;;8.4;;
70014;SDS011;57358;51.094;6.760;2024-01-16T09:07:18;7;;;14.7;;
70014;SDS011;57358;51.094;6.760;2024-01-16T09:12:17;4.6;;;8.6;;
70014;SDS011;57358;51.094;6.760;2024-01-16T09:17:16;5.6;;;13.6;;
70014;SDS011;57358;51.094;6.760;2024-01-16T09:22:15;5;;;13.3;;
70014;SDS011;57358;51.094;6.760;2024-01-16T09:27:14;5.3;;;10.4;;
70014;SDS011;57358;51.094;6.760;2024-01-16T09:32:13;5.3;;;16.5;;
70014;SDS011;57358;51.094;6.760;2024-01-16T09:37:12;5.1;;;13.5;;
70014;SDS011;57358;51.094;6.760;2024-01-16T09:42:11;4.8;;;8.9;;
70014;SDS011;57358;51.094;6.760;2024-01-16T09:47:11;5.5;;;12.1;;
70014;SDS011;57358;51.094;6.760;2024-01-16T09:52:10;5.3;;;10.8;;
70014;SDS011;57358;51.094;6.760;2024-01-16T09:57:09;5.3;;;11.9;;
70014;SDS011;57358;51.094;6.760;2024-01-16T10:02:09;5;;;12;;
70014;SDS011;57358;51.094;6.760;2024-01-16T10:07:07;5.2;;;9.7;;
70014;SDS011;57358;51.094;6.760;2024-01-16T10:12:06;5;;;11.6;;
70014;SDS011;57358;51.094;6.760;2024-01-16T10:17:05;5;;;14;;
70014;SDS011;57358;51.094;6.760;2024-01-16T10:22:04;5;;;10;;
70014;SDS011;57358;51.094;6.760;2024-01-16T10:27:03;5;;;11;;
70014;SDS011;57358;51.094;6.760;2024-01-16T10:32:03;5.7;;;14;;
70014;SDS011;57358;51.094;6.760;2024-01-16T10:37:01;5.2;;;13.1;;
70014;SDS011;57358;51.094;6.760;2024-01-16T10:42:01;5.1;;;15.1;;
70014;SDS011;57358;51.094;6.760;2024-01-16T10:47:09;5.3;;;10.7;;
70014;SDS011;57358;51.094;6.760;2024-01-16T10:51:59;5.3;;;12.5;;
70014;SDS011;57358;51.094;6.760;2024-01-16T10:56:58;5.8;;;10.2;;
70014;SDS011;57358;51.094;6.760;2024-01-16T11:01:57;5;;;7.5;;
70014;SDS011;57358;51.094;6.760;2024-01-16T11:06:56;5.3;;;11.2;;
70014;SDS011;57358;51.094;6.760;2024-01-16T11:11:55;5;;;7.9;;
70014;SDS011;57358;51.094;6.760;2024-01-16T11:16:54;4.6;;;8.4;;
70014;SDS011;57358;51.094;6.760;2024-01-16T11:21:53;6;;;11.1;;
70014;SDS011;57358;51.094;6.760;2024-01-16T11:26:53;6.5;;;12.8;;
70014;SDS011;57358;51.094;6.760;2024-01-16T11:31:52;5.4;;;12.6;;
70014;SDS011;57358;51.094;6.760;2024-01-16T11:36:51;5.8;;;16.5;;
70014;SDS011;57358;51.094;6.760;2024-01-16T11:41:50;5.5;;;16.5;;
70014;SDS011;57358;51.094;6.760;2024-01-16T11:46:59;6;;;11.8;;
70014;SDS011;57358;51.094;6.760;2024-01-16T11:51:48;5.6;;;14.6;;
70014;SDS011;57358;51.094;6.760;2024-01-16T11:56:54;6.7;;;12.6;;
70014;SDS011;57358;51.094;6.760;2024-01-16T12:01:46;5.7;;;9.9;;
70014;SDS011;57358;51.094;6.760;2024-01-16T12:06:55;6.9;;;18.4;;
70014;SDS011;57358;51.094;6.760;2024-01-16T12:11:46;5.6;;;14;;
70014;SDS011;57358;51.094;6.760;2024-01-16T12:16:44;6;;;9.6;;
70014;SDS011;57358;51.094;6.760;2024-01-16T12:21:43;5.5;;;9.8;;
70014;SDS011;57358;51.094;6.760;2024-01-16T12:26:42;6.2;;;13.8;;
70014;SDS011;57358;51.094;6.760;2024-01-16T12:31:41;6.5;;;14.3;;
70014;SDS011;57358;51.094;6.760;2024-01-16T12:36:40;6.6;;;19.2;;
70014;SDS011;57358;51.094;6.760;2024-01-16T12:41:40;5.9;;;13.2;;
70014;SDS011;57358;51.094;6.760;2024-01-16T12:46:39;5.7;;;14.4;;
70014;SDS011;57358;51.094;6.760;2024-01-16T12:51:38;6.6;;;9.7;;
70014;SDS011;57358;51.094;6.760;2024-01-16T12:56:37;7.3;;;18;;
70014;SDS011;57358;51.094;6.760;2024-01-16T13:01:36;6.1;;;11;;
70014;SDS011;57358;51.094;6.760;2024-01-16T13:06:35;6.1;;;13.5;;
70014;SDS011;57358;51.094;6.760;2024-01-16T13:11:44;6;;;13.8;;
70014;SDS011;57358;51.094;6.760;2024-01-16T13:16:34;5.9;;;12.3;;
70014;SDS011;57358;51.094;6.760;2024-01-16T13:21:33;6.2;;;11.6;;
70014;SDS011;57358;51.094;6.760;2024-01-16T13:26:32;5.5;;;11.5;;
70014;SDS011;57358;51.094;6.760;2024-01-16T13:31:31;5.8;;;8.8;;
70014;SDS011;57358;51.094;6.760;2024-01-16T13:36:30;5.8;;;15.9;;
70014;SDS011;57358;51.094;6.760;2024-01-16T13:41:30;6.5;;;13.9;;
70014;SDS011;57358;51.094;6.760;2024-01-16T13:46:29;5.9;;;10.4;;
70014;SDS011;57358;51.094;6.760;2024-01-16T13:51:28;5.9;;;14;;
70014;SDS011;57358;51.094;6.760;2024-01-16T13:56:27;6.1;;;9.7;;
70014;SDS011;57358;51.094;6.760;2024-01-16T14:01:27;6.1;;;9;;
70014;SDS011;57358;51.094;6.760;2024-01-16T14:06:25;6.1;;;14.3;;
70014;SDS011;57358;51.094;6.760;2024-01-16T14:11:24;6.3;;;10.4;;
70014;SDS011;57358;51.094;6.760;2024-01-16T14:16:23;6.3;;;12;;
70014;SDS011;57358;51.094;6.760;2024-01-16T14:21:23;6.1;;;9.1;;
70014;SDS011;57358;51.094;6.760;2024-01-16T14:26:22;5.6;;;9.3;;
70014;SDS011;57358;51.094;6.760;2024-01-16T14:31:21;5.9;;;10.3;;
70014;SDS011;57358;51.094;6.760;2024-01-16T14:36:20;5.6;;;12.1;;
70014;SDS011;57358;51.094;6.760;2024-01-16T14:41:19;6.5;;;11.9;;
70014;SDS011;57358;51.094;6.760;2024-01-16T14:46:18;6;;;14.4;;
70014;SDS011;57358;51.094;6.760;2024-01-16T14:51:17;7.7;;;13.5;;
70014;SDS011;57358;51.094;6.760;2024-01-16T14:56:17;6.8;;;15.5;;
70014;SDS011;57358;51.094;6.760;2024-01-16T15:01:17;6.6;;;10.9;;
70014;SDS011;57358;51.094;6.760;2024-01-16T15:06:15;6.2;;;10.9;;
70014;SDS011;57358;51.094;6.760;2024-01-16T15:11:14;6.5;;;10.3;;
70014;SDS011;57358;51.094;6.760;2024-01-16T15:16:13;6.8;;;11.1;;
70014;SDS011;57358;51.094;6.760;2024-01-16T15:21:12;7.1;;;13.1;;
70014;SDS011;57358;51.094;6.760;2024-01-16T15:26:11;6.9;;;17.3;;
70014;SDS011;57358;51.094;6.760;2024-01-16T15:31:10;6.7;;;14.4;;
70014;SDS011;57358;51.094;6.760;2024-01-16T15:36:10;6.8;;;15.5;;
70014;SDS011;57358;51.094;6.760;2024-01-16T15:41:09;6.2;;;10.1;;
70014;SDS011;57358;51.094;6.760;2024-01-16T15:46:08;7.1;;;14.7;;
70014;SDS011;57358;51.094;6.760;2024-01-16T15:51:07;7.5;;;11.5;;
70014;SDS011;57358;51.094;6.760;2024-01-16T15:56:06;7;;;14.9;;
70014;SDS011;57358;51.094;6.760;2024-01-16T16:01:05;7.5;;;12.1;;
70014;SDS011;57358;51.094;6.760;2024-01-16T16:06:04;10;;;25;;
70014;SDS011;57358;51.094;6.760;2024-01-16T16:11:03;8.6;;;21.4;;
70014;SDS011;57358;51.094;6.760;2024-01-16T16:16:02;8.5;;;16;;
70014;SDS011;57358;51.094;6.760;2024-01-16T16:21:01;9.1;;;18.5;;
70014;SDS011;57358;51.094;6.760;2024-01-16T16:26:00;6.8;;;13.1;;
70014;SDS011;57358;51.094;6.760;2024-01-16T16:31:00;8.7;;;17.5;;
70014;SDS011;57358;51.094;6.760;2024-01-16T16:35:59;7;;;21.1;;
70014;SDS011;57358;51.094;6.760;2024-01-16T16:40:58;6.7;;;13;;
70014;SDS011;57358;51.094;6.760;2024-01-16T16:45:57;6.4;;;11;;
70014;SDS011;57358;51.094;6.760;2024-01-16T16:50:56;7.1;;;16;;
70014;SDS011;57358;51.094;6.760;2024-01-16T16:55:55;6.7;;;13.3;;
70014;SDS011;57358;51.094;6.760;2024-01-16T17:00:54;6.1;;;11.3;;
70014;SDS011;57358;51.094;6.760;2024-01-16T17:05:53;6.7;;;12.9;;
70014;SDS011;57358;51.094;6.760;2024-01-16T17:10:52;6.5;;;13.4;;
70014;SDS011;57358;51.094;6.760;2024-01-16T17:15:51;7;;;16.6;;
70014;SDS011;57358;51.094;6.760;2024-01-16T17:20:50;7.3;;;16;;
70014;SDS011;57358;51.094;6.760;2024-01-16T17:25:49;7.7;;;14;;
70014;SDS011;57358;51.094;6.760;2024-01-16T17:30:48;7.2;;;15.6;;
70014;SDS011;57358;51.094;6.760;2024-01-16T17:35:47;7.6;;;17;;
70014;SDS011;57358;51.094;6.760;2024-01-16T17:40:46;6.3;;;14.9;;
70014;SDS011;57358;51.094;6.760;2024-01-16T17:45:45;7.9;;;20.1;;
70014;SDS011;57358;51.094;6.760;2024-01-16T17:50:44;6.4;;;10.7;;
70014;SDS011;57358;51.094;6.760;2024-01-16T17:55:43;7.1;;;13.1;;
70014;SDS011;57358;51.094;6.760;2024-01-16T18:00:42;5.9;;;13.5;;
70014;SDS011;57358;51.094;6.760;2024-01-16T18:05:41;7.3;;;15.7;;
70014;SDS011;57358;51.094;6.760;2024-01-16T18:10:40;6.8;;;18;;
70014;SDS011;57358;51.094;6.760;2024-01-16T18:15:39;6.9;;;13.9;;
70014;SDS011;57358;51.094;6.760;2024-01-16T18:20:40;6.5;;;12;;
70014;SDS011;57358;51.094;6.760;2024-01-16T18:25:38;6.9;;;13.6;;
70014;SDS011;57358;51.094;6.760;2024-01-16T18:30:36;6.8;;;16.3;;
70014;SDS011;57358;51.094;6.760;2024-01-16T18:35:36;6.3;;;14.2;;
70014;SDS011;57358;51.094;6.760;2024-01-16T18:40:34;6.4;;;16.3;;
70014;SDS011;57358;51.094;6.760;2024-01-16T18:45:33;6.1;;;11.5;;
70014;SDS011;57358;51.094;6.760;2024-01-16T18:50:32;6.9;;;12.9;;
70014;SDS011;57358;51.094;6.760;2024-01-16T18:55:31;6.9;;;16.2;;
70014;SDS011;57358;51.094;6.760;2024-01-16T19:00:30;7.2;;;18.6;;
70014;SDS011;57358;51.094;6.760;2024-01-16T19:05:29;6.8;;;14.2;;
70014;SDS011;57358;51.094;6.760;2024-01-16T19:10:28;7.2;;;13;;
70014;SDS011;57358;51.094;6.760;2024-01-16T19:15:27;6.9;;;16;;
70014;SDS011;57358;51.094;6.760;2024-01-16T19:20:26;6.7;;;14.1;;
70014;SDS011;57358;51.094;6.760;2024-01-16T19:25:25;6.5;;;14;;
70014;SDS011;57358;51.094;6.760;2024-01-16T19:30:25;6.4;;;12.5;;
70014;SDS011;57358;51.094;6.760;2024-01-16T19:35:23;5.9;;;12.3;;
70014;SDS011;57358;51.094;6.760;2024-01-16T19:40:22;5.9;;;8.9;;
70014;SDS011;57358;51.094;6.760;2024-01-16T19:45:21;6.7;;;14.2;;
70014;SDS011;57358;51.094;6.760;2024-01-16T19:50:20;6.3;;;11.6;;
70014;SDS011;57358;51.094;6.760;2024-01-16T19:55:20;6.7;;;14.1;;
70014;SDS011;57358;51.094;6.760;2024-01-16T20:00:19;7.6;;;14.9;;
70014;SDS011;57358;51.094;6.760;2024-01-16T20:05:17;7.2;;;14.8;;
70014;SDS011;57358;51.094;6.760;2024-01-16T20:10:16;7;;;11.4;;
70014;SDS011;57358;51.094;6.760;2024-01-16T20:15:16;7.5;;;13.5;;
70014;SDS011;57358;51.094;6.760;2024-01-16T20:20:15;7.9;;;19.3;;
70014;SDS011;57358;51.094;6.760;2024-01-16T20:25:14;7.2;;;13.1;;
70014;SDS011;57358;51.094;6.760;2024-01-16T20:30:12;7.3;;;17.9;;
70014;SDS011;57358;51.094;6.760;2024-01-16T20:35:12;7.5;;;12.9;;
70014;SDS011;57358;51.094;6.760;2024-01-16T20:40:10;7;;;11.9;;
70014;SDS011;57358;51.094;6.760;2024-01-16T20:45:09;7.7;;;15.3;;
70014;SDS011;57358;51.094;6.760;2024-01-16T20:50:09;7.7;;;12.7;;
70014;SDS011;57358;51.094;6.760;2024-01-16T20:55:07;7.6;;;17.1;;
70014;SDS011;57358;51.094;6.760;2024-01-16T21:00:07;8.1;;;12.5;;
70014;SDS011;57358;51.094;6.760;2024-01-16T21:05:06;7.6;;;18.3;;
70014;SDS011;57358;51.094;6.760;2024-01-16T21:10:04;7.2;;;11.1;;
70014;SDS011;57358;51.094;6.760;2024-01-16T21:15:04;7.2;;;15.5;;
70014;SDS011;57358;51.094;6.760;2024-01-16T21:20:03;7.5;;;15.6;;
70014;SDS011;57358;51.094;6.760;2024-01-16T21:25:01;6.7;;;16.3;;
70014;SDS011;57358;51.094;6.760;2024-01-16T21:30:00;7.8;;;13.8;;
70014;SDS011;57358;51.094;6.760;2024-01-16T21:34:59;7.3;;;16.6;;
70014;SDS011;57358;51.094;6.760;2024-01-16T21:39:58;7.5;;;16;;
70014;SDS011;57358;51.094;6.760;2024-01-16T21:44:57;7.8;;;18.6;;
70014;SDS011;57358;51.094;6.760;2024-01-16T21:49:56;8.2;;;14.9;;
70014;SDS011;57358;51.094;6.760;2024-01-16T21:54:55;7.7;;;17.9;;
70014;SDS011;57358;51.094;6.760;2024-01-16T21:59:54;8.1;;;16.5;;
70014;SDS011;57358;51.094;6.760;2024-01-16T22:04:53;7.4;;;18.3;;
70014;SDS011;57358;51.094;6.760;2024-01-16T22:09:52;7.8;;;14.6;;
70014;SDS011;57358;51.094;6.760;2024-01-16T22:14:51;7.4;;;13.3;;
70014;SDS011;57358;51.094;6.760;2024-01-16T22:19:50;7.2;;;10.6;;
70014;SDS011;57358;51.094;6.760;2024-01-16T22:24:49;7.2;;;17.5;;
70014;SDS011;57358;51.094;6.760;2024-01-16T22:29:48;7.7;;;15.2;;
70014;SDS011;57358;51.094;6.760;2024-01-16T22:34:47;7.4;;;13.6;;
70014;SDS011;57358;51.094;6.760;2024-01-16T22:39:46;7.5;;;18.1;;
70014;SDS011;57358;51.094;6.760;2024-01-16T22:44:45;7.3;;;14.6;;
70014;SDS011;57358;51.094;6.760;2024-01-16T22:49:44;7.8;;;13.1;;
70014;SDS011;57358;51.094;6.760;2024-01-16T22:54:43;7.3;;;16.4;;
70014;SDS011;57358;51.094;6.760;2024-01-16T22:59:42;8.1;;;17.6;;
70014;SDS011;57358;51.094;6.760;2024-01-16T23:04:41;8.3;;;16.9;;
70014;SDS011;57358;51.094;6.760;2024-01-16T23:09:40;9.1;;;19.2;;
70014;SDS011;57358;51.094;6.760;2024-01-16T23:14:39;7.5;;;16.4;;
70014;SDS011;57358;51.094;6.760;2024-01-16T23:19:38;8.1;;;18.3;;
70014;SDS011;57358;51.094;6.760;2024-01-16T23:24:37;7.8;;;17.6;;
70014;SDS011;57358;51.094;6.760;2024-01-16T23:29:36;7.7;;;14.4;;
70014;SDS011;57358;51.094;6.760;2024-01-16T23:34:34;7.3;;;13.1;;
70014;SDS011;57358;51.094;6.760;2024-01-16T23:39:33;7.7;;;15.4;;
70014;SDS011;57358;51.094;6.760;2024-01-16T23:44:32;7.6;;;18.2;;
70014;SDS011;57358;51.094;6.760;2024-01-16T23:49:31;7.9;;;14.4;;
70014;SDS011;57358;51.094;6.760;2024-01-16T23:54:30;7.6;;;14.5;;
70014;SDS011;57358;51.094;6.760;2024-01-16T23:59:29;8;;;18;;
